Meridian, Texas
Current Conditions -  °F | °C
As of 7:55 AM on Friday 31 Oct 2014 (Local Time) from KCPT Reporting Station
Clear Clear  
Wind Chill: 50°   Ceiling: Unl
Heat Index: 50°   Visibility: 10mi
Dew Point: 45°   Wind: 7mph
Humidity: 82%   Direction: 340°NNW
Pressure: 30.28"   Gusts: 13mph
Location:  31.92°N, 97.66°W
Report Text: KCPT 311255Z AUTO 34006G11KT 10SM CLR 10/07 A3028 RMK AO2
Loading
Personal Weather Stations






























Interactive Weather Map
Tropical Storm Tracking
New forecast layout! Learn more

10-Day Weather Forecast

Advertisements
Track Severe Weather on mobile